Terminal Aerodrome Forecast
Issued by NWS Columbia, SC

Home | Current Version | Previous Version | Text Only | Print | Product List | Glossary On
Versions: 1 2 3 4 5 6 7 8 9 10 11 12 13 14 15 16 17 18 19 20 21 22 23 24 25 26 27 28 29 30 31 32 33 34 35 36 37 38 39 40 41 42 43 44 45 46 47 48
083
FTAK31 PAJN 301854 AAA
TAFAGS
TAF AMD
PAGS 301854Z 3019/0118 12007KT P6SM -RA SCT025 OVC035 WS020/11030KT
     FM302000 12012G20KT 5SM RA BR BKN025 OVC035 WS020/11040KT
     FM302200 13018G28KT 4SM RA BR BKN018 OVC025 WS020/12040KT
     FM010100 14015G25KT 6SM -RA BR BKN015 OVC022
     FM010500 13012KT P6SM -SHRA BKN020 OVC030
      AMD LTD TO CLD VIS AND WIND=

USA.gov is the U.S. government's official web portal to all federal, state and local government web resources and services.